首页
METAR-TAF:

METAR-TAF

机场 :

Luxeuil-les-Bains, 法国

纬度: 47-47N, 经度: 006-21E, 海拔: 278米

当前天气观测

该预报发布于12分钟前的19:30 UTC
风速2节,风向多变
温度 12°C
湿度 58%
气压 1011 hPa
能见度10公里或以上
1500米以下无云,无积雨云

METAR: LFSX 101930Z AUTO VRB02KT CAVOK 12/04 Q1011

时间: 21:42 (19:42 UTC)

预报

该预报发布于29小时和42分钟前的14:00 UTC
预报有效从09日的 15点(UTC)到 10日的 15点(UTC)
风速10节,风向西南
能见度10公里或以上
1500米以下无云,无积雨云

TAF: LFSX 091400Z 0915/1015 23010KT CAVOK

超过4000个机场的气象观测和天气预报(METAR&TAF报告)。

可查询的气象台以黄色和红色小点在地图上表示。

将鼠标移到小点上方,可查看气象台名称。

然后点击查看天气观测和预报。

如需切换地图:点击带黑十字的绿色按钮放大地图;点击带横线的绿色按钮缩小地图;或者点击绿色箭头查看邻近地区的地图。


METAR-TAF: